Time;durP1;ratioP1;P1;durP2;ratioP2;P2;SDS_P1;SDS_P2;PMS_P1;PMS_P2;Temp;Humidity;BMP_temperature;BMP_pressure;BME280_temperature;BME280_humidity;BME280_pressure;Samples;Min_cycle;Max_cycle;Signal;HPM_P1;HPM_P2
2021/07/06 00:00:49;;;;;;;6.40;5.40;;;25.70;65.70;;;;;;5035029;28;20503;-68
2021/07/06 00:03:14;;;;;;;6.03;4.88;;;25.70;65.70;;;;;;5035024;28;20049;-66
2021/07/06 00:05:40;;;;;;;7.15;5.38;;;25.60;65.40;;;;;;5033810;28;20033;-66
2021/07/06 00:08:06;;;;;;;6.85;5.43;;;25.70;65.40;;;;;;5035335;28;20053;-66
2021/07/06 00:10:32;;;;;;;6.63;5.32;;;25.70;65.50;;;;;;5034678;28;20034;-66
2021/07/06 00:12:57;;;;;;;5.97;4.82;;;25.70;65.30;;;;;;5035086;28;20021;-67
2021/07/06 00:15:24;;;;;;;5.88;5.28;;;25.60;65.30;;;;;;5033489;28;20029;-66
2021/07/06 00:17:52;;;;;;;5.68;4.43;;;25.60;65.10;;;;;;5034260;28;20065;-66
2021/07/06 00:20:19;;;;;;;6.15;4.95;;;25.60;65.10;;;;;;5034651;28;20060;-67
2021/07/06 00:22:45;;;;;;;6.63;5.10;;;25.70;65.30;;;;;;5034752;28;20104;-66
2021/07/06 00:25:11;;;;;;;5.13;4.40;;;25.70;65.20;;;;;;5034809;28;20037;-67
2021/07/06 00:27:37;;;;;;;5.85;4.82;;;25.70;65.00;;;;;;5034780;28;20048;-67
2021/07/06 00:30:05;;;;;;;5.13;4.43;;;25.60;64.90;;;;;;5034704;28;20458;-67
2021/07/06 00:32:31;;;;;;;6.57;5.00;;;25.70;64.90;;;;;;5033105;28;20038;-67
2021/07/06 00:34:56;;;;;;;5.78;4.65;;;25.60;64.70;;;;;;5034428;28;20032;-67
2021/07/06 00:37:22;;;;;;;6.72;5.05;;;25.70;64.80;;;;;;5034709;28;20450;-67
2021/07/06 00:39:48;;;;;;;5.20;4.35;;;25.60;64.70;;;;;;5034771;28;20025;-67
2021/07/06 00:42:14;;;;;;;4.50;4.10;;;25.60;64.60;;;;;;5034224;28;20362;-67
2021/07/06 00:44:39;;;;;;;7.20;5.10;;;25.60;64.60;;;;;;5034342;28;20035;-67
2021/07/06 00:47:06;;;;;;;6.30;4.97;;;25.60;64.50;;;;;;5034084;28;20025;-67
2021/07/06 00:49:32;;;;;;;5.75;4.75;;;25.60;64.50;;;;;;5033842;28;20056;-67
2021/07/06 00:51:58;;;;;;;5.57;4.65;;;25.60;64.50;;;;;;5016450;28;20039;-67
2021/07/06 00:54:24;;;;;;;5.85;5.25;;;25.60;64.50;;;;;;5034345;28;20100;-67
2021/07/06 00:56:49;;;;;;;5.60;4.97;;;25.60;64.50;;;;;;5034229;28;20029;-67
2021/07/06 00:59:15;;;;;;;5.45;4.15;;;25.60;64.50;;;;;;5034100;28;20025;-66
2021/07/06 01:01:41;;;;;;;5.30;4.72;;;25.60;64.50;;;;;;5034059;28;20057;-66
2021/07/06 01:04:07;;;;;;;5.25;4.63;;;25.60;64.50;;;;;;5033499;28;20045;-67
2021/07/06 01:06:33;;;;;;;5.55;4.22;;;25.60;64.40;;;;;;5033752;28;20037;-66
2021/07/06 01:08:59;;;;;;;5.05;4.35;;;25.60;64.40;;;;;;5033938;28;20428;-67
2021/07/06 01:11:25;;;;;;;6.72;4.53;;;25.60;64.40;;;;;;5033955;28;20461;-66
2021/07/06 01:13:51;;;;;;;7.40;4.18;;;25.60;64.40;;;;;;5033772;28;20108;-66
2021/07/06 01:16:17;;;;;;;5.90;4.32;;;25.60;64.40;;;;;;5032427;28;20125;-66
2021/07/06 01:18:43;;;;;;;5.43;4.60;;;25.60;64.40;;;;;;5033554;28;20462;-67
2021/07/06 01:21:09;;;;;;;5.55;4.30;;;25.60;64.40;;;;;;5033475;28;20471;-66
2021/07/06 01:23:35;;;;;;;5.70;4.80;;;25.60;64.50;;;;;;5033325;28;20072;-66
2021/07/06 01:26:04;;;;;;;5.90;5.25;;;25.70;64.50;;;;;;5033504;28;20037;-67
2021/07/06 01:28:30;;;;;;;5.45;4.63;;;25.60;64.50;;;;;;5033637;28;20029;-66
2021/07/06 01:30:56;;;;;;;5.15;4.20;;;25.60;64.50;;;;;;5033261;28;20051;-67
2021/07/06 01:33:27;;;;;;;7.28;5.22;;;25.60;64.50;;;;;;5033452;28;20531;-67
2021/07/06 01:35:56;;;;;;;5.03;4.53;;;25.70;64.50;;;;;;5033709;28;20065;-66
2021/07/06 01:38:23;;;;;;;5.68;4.40;;;25.60;64.40;;;;;;5033410;28;20398;-66
2021/07/06 01:40:48;;;;;;;5.38;4.15;;;25.60;64.40;;;;;;5033249;28;20021;-66
2021/07/06 01:43:14;;;;;;;5.28;4.78;;;25.60;64.40;;;;;;5032050;28;20469;-66
2021/07/06 01:45:41;;;;;;;5.10;4.45;;;25.60;64.30;;;;;;5032921;28;20037;-66
2021/07/06 01:48:07;;;;;;;5.45;4.43;;;25.60;64.40;;;;;;5032801;28;20424;-66
2021/07/06 01:50:35;;;;;;;5.30;4.38;;;25.60;64.30;;;;;;5033029;28;20037;-66
2021/07/06 01:53:04;;;;;;;5.28;4.63;;;25.60;64.30;;;;;;5031974;28;20429;-66
2021/07/06 01:55:32;;;;;;;4.53;4.07;;;25.60;64.20;;;;;;5032778;28;20067;-67
2021/07/06 01:58:00;;;;;;;5.55;4.88;;;25.60;64.20;;;;;;5033170;28;20017;-66
2021/07/06 02:00:31;;;;;;;5.70;4.97;;;25.60;64.20;;;;;;5032791;28;20021;-67
2021/07/06 02:02:58;;;;;;;5.97;4.35;;;25.60;64.10;;;;;;5033077;28;20025;-67
2021/07/06 02:05:37;;;;;;;5.18;3.83;;;25.60;64.90;;;;;;5033046;28;20470;-66
2021/07/06 02:08:08;;;;;;;5.97;4.57;;;25.60;64.00;;;;;;5032994;28;20030;-67
2021/07/06 02:10:34;;;;;;;4.93;4.43;;;25.60;64.00;;;;;;5032778;28;20394;-67
2021/07/06 02:13:02;;;;;;;6.15;4.15;;;25.60;63.90;;;;;;5031276;28;20440;-67
2021/07/06 02:15:28;;;;;;;4.90;4.00;;;25.60;63.90;;;;;;5032815;28;20512;-67
2021/07/06 02:17:54;;;;;;;5.32;4.70;;;25.60;63.90;;;;;;5031567;28;20025;-66
2021/07/06 02:20:21;;;;;;;4.88;4.30;;;25.60;63.90;;;;;;5032659;28;20036;-66
2021/07/06 02:22:48;;;;;;;5.63;5.03;;;25.60;63.80;;;;;;5032529;28;20071;-66
2021/07/06 02:25:16;;;;;;;5.82;4.93;;;25.60;63.70;;;;;;5031421;28;20033;-66
2021/07/06 02:27:46;;;;;;;5.47;4.07;;;25.60;63.80;;;;;;5031770;28;20481;-66
2021/07/06 02:30:19;;;;;;;6.43;4.75;;;25.60;63.80;;;;;;5032830;28;20462;-66
2021/07/06 02:32:45;;;;;;;4.97;4.47;;;25.60;63.70;;;;;;5032550;28;20377;-66
2021/07/06 02:35:11;;;;;;;5.72;4.13;;;25.60;63.70;;;;;;5032559;28;20033;-66
2021/07/06 02:37:40;;;;;;;4.90;4.40;;;25.60;63.70;;;;;;5032474;28;20025;-66
2021/07/06 02:40:08;;;;;;;4.93;4.43;;;25.60;63.70;;;;;;5032371;28;20104;-66
2021/07/06 02:42:34;;;;;;;4.60;4.10;;;25.60;63.70;;;;;;5032057;28;20386;-66
2021/07/06 02:45:01;;;;;;;5.68;4.00;;;25.60;63.70;;;;;;5032419;28;20527;-66
2021/07/06 02:47:26;;;;;;;6.25;4.03;;;25.60;63.70;;;;;;5031442;28;20121;-66
2021/07/06 02:49:52;;;;;;;4.38;3.97;;;25.60;63.70;;;;;;5032449;28;20450;-66
2021/07/06 02:52:18;;;;;;;4.88;4.38;;;25.60;63.60;;;;;;5031202;28;20083;-66
2021/07/06 02:54:43;;;;;;;5.03;4.40;;;25.60;63.60;;;;;;5032240;28;20029;-66
2021/07/06 02:57:10;;;;;;;4.72;3.92;;;25.60;63.60;;;;;;5032430;28;20053;-66
2021/07/06 02:59:39;;;;;;;4.30;3.90;;;25.60;63.60;;;;;;5032364;28;20033;-66
2021/07/06 03:02:05;;;;;;;7.05;5.22;;;25.60;63.60;;;;;;5032525;28;20052;-66
2021/07/06 03:04:30;;;;;;;5.05;4.18;;;25.60;63.60;;;;;;5031951;28;20481;-69
2021/07/06 03:06:56;;;;;;;5.03;4.53;;;25.60;63.50;;;;;;5032463;28;20350;-66
2021/07/06 03:09:22;;;;;;;5.55;5.03;;;25.60;63.60;;;;;;5031823;28;20064;-66
2021/07/06 03:11:47;;;;;;;6.38;4.72;;;25.60;63.60;;;;;;5032497;28;20155;-66
2021/07/06 03:14:13;;;;;;;5.32;4.60;;;25.60;63.80;;;;;;5032147;28;20057;-66
2021/07/06 03:16:39;;;;;;;5.82;4.22;;;25.60;63.70;;;;;;5032429;28;20041;-66
2021/07/06 03:19:05;;;;;;;4.60;4.05;;;25.60;63.60;;;;;;5032233;28;20112;-66
2021/07/06 03:21:31;;;;;;;4.68;4.13;;;25.60;63.60;;;;;;5030880;28;20025;-66
2021/07/06 03:23:56;;;;;;;4.95;4.45;;;25.60;63.60;;;;;;5031942;28;20455;-66
2021/07/06 03:26:22;;;;;;;6.57;4.15;;;25.60;64.40;;;;;;5032064;28;20038;-66
2021/07/06 03:28:48;;;;;;;5.97;4.47;;;25.60;63.60;;;;;;5032300;28;20461;-66
2021/07/06 03:31:13;;;;;;;4.78;4.22;;;25.60;63.70;;;;;;5031808;28;20029;-66
2021/07/06 03:33:39;;;;;;;5.53;4.40;;;25.60;63.70;;;;;;5032261;28;20454;-66
2021/07/06 03:36:05;;;;;;;5.28;4.78;;;25.50;63.60;;;;;;5031726;28;20068;-66
2021/07/06 03:38:32;;;;;;;5.35;4.07;;;25.50;63.60;;;;;;5032004;28;20474;-67
2021/07/06 03:40:57;;;;;;;4.93;4.43;;;25.50;63.60;;;;;;5033539;28;20488;-66
2021/07/06 03:43:23;;;;;;;6.25;5.13;;;25.50;63.60;;;;;;5035971;28;20108;-66
2021/07/06 03:45:49;;;;;;;5.13;3.92;;;25.50;63.70;;;;;;5035342;28;20026;-66
2021/07/06 03:48:14;;;;;;;6.47;4.70;;;25.50;63.50;;;;;;5035373;28;20528;-66
2021/07/06 03:50:40;;;;;;;6.25;4.60;;;25.50;63.50;;;;;;5035414;28;20105;-67
2021/07/06 03:53:07;;;;;;;4.88;4.38;;;25.50;64.30;;;;;;5035087;28;20030;-66
2021/07/06 03:55:33;;;;;;;5.40;4.40;;;25.60;63.60;;;;;;5035421;28;20378;-66
2021/07/06 03:57:59;;;;;;;5.10;4.38;;;25.50;63.50;;;;;;5035103;28;20022;-66
2021/07/06 04:00:27;;;;;;;4.97;4.28;;;25.50;63.40;;;;;;5035353;28;20037;-66
2021/07/06 04:02:54;;;;;;;5.55;5.03;;;25.50;63.40;;;;;;5034574;28;20425;-66
2021/07/06 04:05:20;;;;;;;5.80;4.63;;;25.50;63.40;;;;;;5035192;28;20073;-66
2021/07/06 04:07:46;;;;;;;5.32;4.82;;;25.50;63.40;;;;;;5034795;28;20037;-67
2021/07/06 04:10:16;;;;;;;5.63;4.43;;;25.50;63.40;;;;;;5035297;28;20155;-66
2021/07/06 04:12:42;;;;;;;4.72;4.20;;;25.50;63.40;;;;;;5035122;28;20083;-66
2021/07/06 04:15:10;;;;;;;5.28;3.83;;;25.50;63.30;;;;;;5033620;28;20132;-66
2021/07/06 04:17:37;;;;;;;4.78;4.30;;;25.50;63.30;;;;;;5034688;28;20033;-67
2021/07/06 04:20:05;;;;;;;5.85;4.13;;;25.50;63.40;;;;;;5033864;28;20021;-66
2021/07/06 04:22:31;;;;;;;4.70;4.15;;;25.50;63.40;;;;;;5034744;28;20497;-67
2021/07/06 04:24:56;;;;;;;5.15;4.32;;;25.50;63.30;;;;;;5034420;28;20034;-67
2021/07/06 04:27:22;;;;;;;5.03;4.03;;;25.50;63.30;;;;;;5034550;28;20061;-66
2021/07/06 04:29:48;;;;;;;5.28;4.47;;;25.50;63.30;;;;;;5034437;28;20381;-66
2021/07/06 04:32:16;;;;;;;5.72;4.65;;;25.50;63.30;;;;;;5034739;28;20036;-66
2021/07/06 04:34:43;;;;;;;4.70;4.20;;;25.50;63.30;;;;;;5034410;28;20025;-66
2021/07/06 04:37:10;;;;;;;5.57;3.95;;;25.50;63.40;;;;;;5034721;28;20025;-66
2021/07/06 04:39:36;;;;;;;5.20;4.45;;;25.50;63.30;;;;;;5034440;28;20432;-66
2021/07/06 04:42:02;;;;;;;6.30;4.82;;;25.50;63.30;;;;;;5034642;28;20135;-66
2021/07/06 04:44:27;;;;;;;5.57;4.50;;;25.50;63.30;;;;;;5034285;28;20064;-66
2021/07/06 04:46:53;;;;;;;5.60;4.53;;;25.50;63.20;;;;;;5033098;28;20091;-66
2021/07/06 04:49:18;;;;;;;8.98;4.68;;;25.50;63.20;;;;;;5033810;28;20045;-66
2021/07/06 04:51:44;;;;;;;5.47;4.28;;;25.50;63.20;;;;;;5033787;28;20029;-66
2021/07/06 04:54:10;;;;;;;5.15;4.57;;;25.50;63.20;;;;;;5034362;28;20044;-67
2021/07/06 04:56:35;;;;;;;5.13;4.28;;;25.50;63.20;;;;;;5034137;28;20033;-66
2021/07/06 04:59:01;;;;;;;5.25;4.70;;;25.50;63.20;;;;;;5034533;28;20025;-66
2021/07/06 05:01:27;;;;;;;5.43;4.82;;;25.50;63.30;;;;;;5034234;28;20559;-66
2021/07/06 05:03:54;;;;;;;5.28;4.60;;;25.50;63.30;;;;;;5033901;28;20081;-66
2021/07/06 05:06:20;;;;;;;5.63;5.07;;;25.50;63.20;;;;;;5033447;28;20041;-66
2021/07/06 05:08:47;;;;;;;7.88;4.72;;;25.50;63.30;;;;;;5034170;28;20037;-66
2021/07/06 05:11:14;;;;;;;5.03;4.53;;;25.50;63.30;;;;;;5033675;28;20103;-66
2021/07/06 05:13:40;;;;;;;7.72;5.53;;;25.50;63.30;;;;;;5033951;28;20039;-69
2021/07/06 05:16:06;;;;;;;5.55;4.20;;;25.50;63.50;;;;;;5033675;28;20030;-68
2021/07/06 05:18:32;;;;;;;5.95;5.35;;;25.50;63.70;;;;;;5033614;28;20474;-69
2021/07/06 05:20:57;;;;;;;6.43;4.93;;;25.50;64.00;;;;;;5033355;28;20080;-68
2021/07/06 05:23:23;;;;;;;7.50;5.13;;;25.50;64.20;;;;;;5033893;28;20022;-68
2021/07/06 05:25:49;;;;;;;6.97;5.10;;;25.50;64.30;;;;;;5033506;28;20026;-66
2021/07/06 05:28:14;;;;;;;6.97;5.57;;;25.50;64.50;;;;;;5032286;28;20037;-66
2021/07/06 05:30:40;;;;;;;6.50;5.50;;;25.50;64.50;;;;;;5032430;28;20466;-70
2021/07/06 05:33:06;;;;;;;8.50;5.28;;;25.50;64.60;;;;;;5033456;28;20052;-66
2021/07/06 05:35:32;;;;;;;6.03;5.43;;;25.50;64.60;;;;;;5033346;28;20048;-66
2021/07/06 05:38:00;;;;;;;6.32;5.13;;;25.50;64.80;;;;;;5033072;28;20029;-66
2021/07/06 05:40:26;;;;;;;5.88;5.07;;;25.50;64.90;;;;;;5033407;28;20109;-66
2021/07/06 05:42:51;;;;;;;6.72;4.68;;;25.50;64.90;;;;;;5031829;28;20549;-66
2021/07/06 05:45:17;;;;;;;5.78;5.15;;;25.50;65.00;;;;;;5033286;28;20108;-66
2021/07/06 05:47:43;;;;;;;8.38;5.65;;;25.50;65.10;;;;;;5032915;28;20108;-69
2021/07/06 05:50:12;;;;;;;8.10;5.47;;;25.50;65.40;;;;;;5033144;28;20079;-66
2021/07/06 05:52:38;;;;;;;7.32;4.78;;;25.50;65.40;;;;;;5033090;28;20457;-67
2021/07/06 05:55:05;;;;;;;5.97;5.38;;;25.50;65.40;;;;;;5032989;28;20032;-67
2021/07/06 05:57:31;;;;;;;7.50;5.20;;;25.50;65.40;;;;;;5032752;28;20036;-67
2021/07/06 05:59:58;;;;;;;6.72;5.25;;;25.50;65.40;;;;;;5032683;28;20029;-67
2021/07/06 06:02:24;;;;;;;6.38;5.20;;;25.50;65.50;;;;;;5032440;28;20493;-68
2021/07/06 06:04:49;;;;;;;7.40;5.53;;;25.50;65.50;;;;;;5031980;28;20103;-66
2021/07/06 06:07:15;;;;;;;6.22;4.97;;;25.50;65.50;;;;;;5033061;28;20025;-66
2021/07/06 06:09:41;;;;;;;6.78;4.95;;;25.50;64.00;;;;;;5031969;28;20104;-65
2021/07/06 06:12:09;;;;;;;5.70;5.00;;;25.50;63.20;;;;;;5032918;28;20112;-66
2021/07/06 06:14:35;;;;;;;7.25;5.55;;;25.50;62.30;;;;;;5032552;28;20036;-68
2021/07/06 06:17:01;;;;;;;5.43;4.47;;;25.50;62.20;;;;;;5032573;28;20108;-67
2021/07/06 06:19:26;;;;;;;8.43;4.75;;;25.50;62.30;;;;;;5032770;28;20033;-68
2021/07/06 06:21:52;;;;;;;5.95;5.35;;;25.50;62.40;;;;;;5032924;28;20033;-68
2021/07/06 06:24:18;;;;;;;9.38;4.78;;;25.50;62.50;;;;;;5032426;28;20026;-68
2021/07/06 06:26:43;;;;;;;6.32;5.07;;;25.50;63.00;;;;;;5031336;28;20037;-68
2021/07/06 06:29:09;;;;;;;7.18;4.85;;;25.50;62.90;;;;;;5032832;28;20172;-68
2021/07/06 06:31:35;;;;;;;6.55;4.65;;;25.50;62.70;;;;;;5032460;28;20084;-68
2021/07/06 06:34:00;;;;;;;5.47;4.22;;;25.50;62.60;;;;;;5032356;28;20018;-68
2021/07/06 06:36:26;;;;;;;6.78;4.55;;;25.50;62.70;;;;;;5032357;28;20083;-68
2021/07/06 06:38:52;;;;;;;7.38;4.13;;;25.50;62.60;;;;;;5032687;28;20040;-68
2021/07/06 06:41:17;;;;;;;6.32;4.38;;;25.50;62.50;;;;;;5032422;28;20454;-68
2021/07/06 06:43:43;;;;;;;5.60;4.43;;;25.50;62.30;;;;;;5032218;28;20474;-66
2021/07/06 06:46:09;;;;;;;5.55;4.38;;;25.50;62.30;;;;;;5032020;28;20041;-68
2021/07/06 06:48:35;;;;;;;5.57;3.85;;;25.50;62.30;;;;;;5032243;28;20512;-68
2021/07/06 06:51:01;;;;;;;6.00;4.78;;;25.50;62.40;;;;;;5032195;28;20028;-67
2021/07/06 06:53:26;;;;;;;6.15;4.20;;;25.50;62.30;;;;;;5032353;28;20101;-67
2021/07/06 06:55:52;;;;;;;5.97;3.85;;;25.50;62.50;;;;;;5032305;28;20041;-68
2021/07/06 06:58:17;;;;;;;6.13;4.78;;;25.50;62.40;;;;;;5032489;28;20029;-68
2021/07/06 07:00:43;;;;;;;7.38;3.97;;;25.50;62.50;;;;;;5032461;28;20437;-68
2021/07/06 07:03:09;;;;;;;7.07;3.90;;;25.50;62.50;;;;;;5031829;28;20366;-68
2021/07/06 07:05:35;;;;;;;6.20;4.68;;;25.50;62.60;;;;;;5032497;28;20029;-68
2021/07/06 07:08:01;;;;;;;4.25;3.85;;;25.50;62.50;;;;;;5032125;28;20026;-68
2021/07/06 07:10:27;;;;;;;4.97;4.20;;;25.50;62.40;;;;;;5032516;28;20036;-68
2021/07/06 07:12:54;;;;;;;6.32;4.63;;;25.50;62.20;;;;;;5032072;28;20521;-68
2021/07/06 07:15:21;;;;;;;5.97;4.20;;;25.50;62.30;;;;;;5033123;28;20037;-68
2021/07/06 07:17:47;;;;;;;5.20;4.28;;;25.50;62.20;;;;;;5035528;28;20493;-66
2021/07/06 07:20:13;;;;;;;7.63;6.80;;;25.50;62.40;;;;;;5035738;28;20037;-69
2021/07/06 07:22:39;;;;;;;9.80;8.15;;;25.40;64.80;;;;;;5033982;28;20025;-65
2021/07/06 07:25:06;;;;;;;11.30;7.70;;;25.30;66.50;;;;;;5035271;28;20108;-66
2021/07/06 07:27:31;;;;;;;11.00;9.80;;;25.30;66.80;;;;;;5034815;28;20041;-63
2021/07/06 07:29:57;;;;;;;14.77;12.25;;;25.20;66.70;;;;;;5034258;28;20018;-67
2021/07/06 07:32:23;;;;;;;21.77;19.17;;;25.20;66.60;;;;;;5035155;28;20543;-64
2021/07/06 07:34:49;;;;;;;16.35;14.50;;;25.20;66.50;;;;;;5035009;28;20168;-65
2021/07/06 07:37:16;;;;;;;15.85;12.88;;;25.10;65.10;;;;;;5035234;28;20100;-63
2021/07/06 07:39:44;;;;;;;19.55;15.85;;;25.10;65.20;;;;;;5033667;28;20032;-63
2021/07/06 07:42:10;;;;;;;17.20;13.40;;;25.10;65.30;;;;;;5034939;28;20167;-63
2021/07/06 07:44:36;;;;;;;17.58;13.48;;;25.00;65.30;;;;;;5034528;28;20095;-63
2021/07/06 07:47:02;;;;;;;15.77;14.15;;;25.00;65.50;;;;;;5034755;28;20045;-64
2021/07/06 07:49:28;;;;;;;23.65;15.60;;;25.00;65.50;;;;;;5034576;28;20030;-63
2021/07/06 07:51:54;;;;;;;19.95;17.38;;;25.00;65.70;;;;;;5034804;28;20025;-63
2021/07/06 07:54:19;;;;;;;21.85;16.30;;;25.00;65.80;;;;;;5034469;28;20029;-63
2021/07/06 07:56:45;;;;;;;24.27;20.00;;;25.00;65.90;;;;;;5034761;28;20026;-64
2021/07/06 07:59:12;;;;;;;22.92;17.92;;;25.10;65.90;;;;;;5034310;28;20083;-68
2021/07/06 08:01:38;;;;;;;19.83;17.65;;;25.10;65.70;;;;;;5034871;28;20057;-65
2021/07/06 08:04:04;;;;;;;21.10;16.88;;;25.10;65.70;;;;;;5034104;28;20050;-65
2021/07/06 08:06:30;;;;;;;20.75;17.95;;;25.10;65.60;;;;;;5034312;28;20033;-65
2021/07/06 08:08:56;;;;;;;20.23;16.48;;;25.10;65.40;;;;;;5034449;28;20037;-65
2021/07/06 08:11:22;;;;;;;20.08;17.85;;;25.20;65.30;;;;;;5034363;28;20112;-66
2021/07/06 08:13:48;;;;;;;22.35;18.38;;;25.20;65.10;;;;;;5033765;28;20589;-66
2021/07/06 08:16:14;;;;;;;23.35;17.60;;;25.30;65.10;;;;;;5033882;28;20040;-66
2021/07/06 08:18:39;;;;;;;21.85;19.48;;;25.30;65.00;;;;;;5034452;28;20068;-66
2021/07/06 08:21:05;;;;;;;24.67;20.33;;;25.30;64.90;;;;;;5034430;28;20057;-66
2021/07/06 08:23:31;;;;;;;23.40;18.70;;;25.30;64.90;;;;;;5034508;28;20469;-66
2021/07/06 08:25:57;;;;;;;21.35;18.65;;;25.30;64.70;;;;;;5033101;28;20474;-66
2021/07/06 08:28:23;;;;;;;20.13;17.20;;;25.30;64.70;;;;;;5034275;28;20512;-66
2021/07/06 08:30:50;;;;;;;20.67;16.05;;;25.30;64.60;;;;;;5034025;28;20107;-66
2021/07/06 08:33:16;;;;;;;20.88;17.60;;;25.40;64.60;;;;;;5034652;28;20032;-66
2021/07/06 08:35:42;;;;;;;19.77;16.45;;;25.40;64.60;;;;;;5034515;28;20045;-66
2021/07/06 08:38:08;;;;;;;17.30;14.88;;;25.30;64.50;;;;;;5033875;28;20022;-66
2021/07/06 08:40:33;;;;;;;18.05;14.57;;;25.30;64.60;;;;;;5033613;28;20017;-66
2021/07/06 08:43:03;;;;;;;17.67;15.27;;;25.40;64.60;;;;;;5033428;28;20045;-66
2021/07/06 08:45:29;;;;;;;18.00;15.05;;;25.40;64.50;;;;;;5033550;28;20374;-66
2021/07/06 08:47:56;;;;;;;17.45;15.52;;;25.40;64.50;;;;;;5033638;28;20036;-66
2021/07/06 08:50:23;;;;;;;17.00;12.98;;;25.40;64.50;;;;;;5033512;28;20029;-66
2021/07/06 08:52:48;;;;;;;15.93;11.82;;;25.40;64.50;;;;;;5032490;28;20026;-66
2021/07/06 08:55:19;;;;;;;12.75;11.43;;;25.40;64.40;;;;;;5033140;28;20036;-65
2021/07/06 08:57:46;;;;;;;14.05;11.77;;;25.40;64.40;;;;;;5033122;28;20057;-65
2021/07/06 09:00:14;;;;;;;13.27;11.35;;;25.40;64.40;;;;;;5033344;28;20025;-65
2021/07/06 09:02:40;;;;;;;14.73;11.30;;;25.40;64.50;;;;;;5032378;28;20030;-65
2021/07/06 09:05:19;;;;;;;13.23;10.07;;;25.40;64.50;;;;;;5032584;28;20477;-65
2021/07/06 09:07:45;;;;;;;12.52;9.93;;;25.40;64.50;;;;;;5033149;28;20021;-65
2021/07/06 09:10:16;;;;;;;12.27;9.85;;;25.40;64.50;;;;;;5031758;28;20033;-65
2021/07/06 09:12:44;;;;;;;13.65;10.48;;;25.40;64.50;;;;;;5033049;28;20026;-65
2021/07/06 09:15:26;;;;;;;12.77;10.27;;;25.40;64.50;;;;;;5033186;28;20029;-65
2021/07/06 09:18:08;;;;;;;10.48;9.43;;;25.40;64.40;;;;;;5032622;28;20377;-65
2021/07/06 09:20:34;;;;;;;9.90;7.90;;;25.40;64.40;;;;;;5032918;28;20136;-65
2021/07/06 09:23:19;;;;;;;12.05;9.20;;;25.40;64.20;;;;;;5031959;28;20160;-66
2021/07/06 09:25:45;;;;;;;12.50;9.82;;;25.40;64.20;;;;;;5032961;28;20037;-66
2021/07/06 09:28:21;;;;;;;9.95;8.80;;;25.40;64.10;;;;;;5032919;28;20026;-66
2021/07/06 09:30:47;;;;;;;10.02;8.25;;;25.40;64.00;;;;;;5032693;28;20026;-66
2021/07/06 09:33:28;;;;;;;9.75;7.93;;;25.40;64.00;;;;;;5031249;28;20034;-66
2021/07/06 09:35:55;;;;;;;10.43;8.20;;;25.40;64.00;;;;;;5032663;28;20061;-66
2021/07/06 09:38:21;;;;;;;9.18;7.90;;;25.50;64.00;;;;;;5032666;28;20034;-66
2021/07/06 09:40:50;;;;;;;11.73;7.82;;;25.40;63.70;;;;;;5032697;28;20060;-66
2021/07/06 09:43:27;;;;;;;10.13;8.15;;;25.40;63.50;;;;;;5032805;28;20113;-66
2021/07/06 09:46:11;;;;;;;11.52;7.78;;;25.40;63.60;;;;;;5032399;28;20041;-66
2021/07/06 09:48:43;;;;;;;7.88;7.07;;;25.40;63.30;;;;;;5031203;28;20061;-66
2021/07/06 09:51:21;;;;;;;11.02;8.48;;;25.40;63.20;;;;;;5032306;28;20032;-66
2021/07/06 09:53:51;;;;;;;9.85;7.47;;;25.40;63.10;;;;;;5032549;28;20033;-66
2021/07/06 09:56:19;;;;;;;8.95;6.68;;;25.40;63.00;;;;;;5032419;28;20029;-66
2021/07/06 09:58:53;;;;;;;6.93;6.15;;;25.40;62.80;;;;;;5032482;28;20025;-66
2021/07/06 10:01:20;;;;;;;7.90;5.88;;;25.40;62.50;;;;;;5032068;28;20026;-67
2021/07/06 10:03:49;;;;;;;7.10;6.40;;;25.40;62.30;;;;;;5032017;28;20448;-66
2021/07/06 10:06:16;;;;;;;7.63;5.95;;;25.50;62.20;;;;;;5031868;28;20037;-64
2021/07/06 10:08:43;;;;;;;9.00;5.95;;;25.40;61.70;;;;;;5031993;28;20045;-66
2021/07/06 10:11:09;;;;;;;9.93;6.25;;;25.40;61.90;;;;;;5032132;28;20029;-67
2021/07/06 10:13:37;;;;;;;7.82;6.30;;;25.40;61.90;;;;;;5032109;28;20049;-66
2021/07/06 10:16:04;;;;;;;7.95;6.00;;;25.40;61.80;;;;;;5031786;28;20029;-66
2021/07/06 10:18:32;;;;;;;7.95;5.28;;;25.40;61.60;;;;;;5030656;28;20457;-66
2021/07/06 10:20:59;;;;;;;6.70;5.70;;;25.40;61.40;;;;;;5031594;28;20425;-66
2021/07/06 10:23:25;;;;;;;7.93;5.95;;;25.40;61.60;;;;;;5031984;28;20075;-67
2021/07/06 10:25:57;;;;;;;6.35;5.32;;;25.40;61.40;;;;;;5031617;28;20079;-67
2021/07/06 10:28:26;;;;;;;7.65;5.43;;;25.40;61.40;;;;;;5031999;28;20076;-67
2021/07/06 10:30:52;;;;;;;6.05;5.25;;;25.40;61.40;;;;;;5031715;28;20470;-67
2021/07/06 10:33:30;;;;;;;6.10;5.50;;;25.50;61.40;;;;;;5031764;28;20112;-66
2021/07/06 10:35:57;;;;;;;7.22;5.70;;;25.40;61.40;;;;;;5032198;28;20025;-67
2021/07/06 10:38:32;;;;;;;6.72;5.50;;;25.40;61.60;;;;;;5031721;28;20032;-67
2021/07/06 10:41:24;;;;;;;7.18;5.88;;;25.50;62.10;;;;;;5031826;28;20028;-67
2021/07/06 10:43:53;;;;;;;7.15;5.70;;;25.40;61.90;;;;;;5024368;28;20128;-67
2021/07/06 10:46:22;;;;;;;6.63;5.03;;;25.40;61.40;;;;;;5031762;28;20034;-66
2021/07/06 10:48:50;;;;;;;5.57;4.85;;;25.50;61.40;;;;;;5031930;28;20055;-67
2021/07/06 10:51:37;;;;;;;6.22;4.88;;;25.40;61.60;;;;;;5035756;28;20108;-67
2021/07/06 10:54:19;;;;;;;6.18;4.70;;;25.50;61.20;;;;;;5035375;28;20417;-66
2021/07/06 10:56:46;;;;;;;6.97;4.72;;;25.50;61.50;;;;;;5035647;28;20026;-67
2021/07/06 10:59:35;;;;;;;9.20;4.68;;;25.40;61.30;;;;;;5035586;28;20080;-66
2021/07/06 11:02:04;;;;;;;5.32;4.50;;;25.50;60.90;;;;;;5026409;28;20041;-66
2021/07/06 11:07:08;;;;;;;5.47;4.85;;;25.50;61.20;;;;;;5035010;28;20037;-66
2021/07/06 11:09:34;;;;;;;6.23;3.97;;;25.40;60.80;;;;;;5034616;28;20034;-67
2021/07/06 11:12:25;;;;;;;6.50;4.75;;;25.50;60.70;;;;;;5035032;28;20351;-66
2021/07/06 11:15:27;;;;;;;6.80;4.13;;;25.50;61.10;;;;;;5034959;28;20061;-67
2021/07/06 11:18:04;;;;;;;6.55;4.28;;;25.50;61.30;;;;;;5028013;28;20037;-66
2021/07/06 11:20:37;;;;;;;5.50;3.92;;;25.40;60.80;;;;;;5035045;28;20220;-67
2021/07/06 11:23:07;;;;;;;6.32;4.35;;;25.50;61.10;;;;;;5035109;28;20056;-66
2021/07/06 11:25:36;;;;;;;4.45;3.70;;;25.50;60.90;;;;;;5034669;28;20029;-66
2021/07/06 11:28:06;;;;;;;6.07;4.13;;;25.50;60.70;;;;;;5034646;28;20033;-67
2021/07/06 11:30:35;;;;;;;6.95;4.28;;;25.50;61.10;;;;;;5034810;28;20032;-66
2021/07/06 11:33:11;;;;;;;5.47;4.20;;;25.50;61.40;;;;;;5034825;28;20593;-66
2021/07/06 11:35:44;;;;;;;5.70;4.00;;;25.50;60.30;;;;;;5034678;28;20115;-68
2021/07/06 11:38:15;;;;;;;5.15;3.92;;;25.50;59.80;;;;;;5034024;28;20033;-68
2021/07/06 11:40:44;;;;;;;35.72;31.85;;;25.50;58.80;;;;;;5034226;28;20466;-68
2021/07/06 11:43:12;;;;;;;32.97;25.05;;;25.60;58.40;;;;;;5034430;28;20128;-68
2021/07/06 11:45:38;;;;;;;37.35;31.35;;;25.70;57.50;;;;;;5033744;28;20037;-68
2021/07/06 11:48:13;;;;;;;26.67;23.85;;;25.80;56.50;;;;;;5033735;28;20361;-68
2021/07/06 11:50:41;;;;;;;30.85;26.45;;;25.70;56.80;;;;;;5031233;28;20068;-67
2021/07/06 11:53:07;;;;;;;16.63;14.52;;;25.70;57.10;;;;;;5033723;28;20928;-68
2021/07/06 11:55:34;;;;;;;12.55;10.43;;;25.70;57.70;;;;;;5033673;28;20021;-69
2021/07/06 11:58:02;;;;;;;8.75;7.65;;;25.70;58.10;;;;;;5033812;28;20033;-69
2021/07/06 12:00:31;;;;;;;9.50;6.65;;;25.80;58.20;;;;;;5030100;28;20363;-68
2021/07/06 12:03:23;;;;;;;7.88;5.85;;;25.80;58.00;;;;;;5031793;28;20377;-68
2021/07/06 12:05:52;;;;;;;7.22;5.18;;;25.80;58.00;;;;;;5031105;28;20473;-68
2021/07/06 12:08:27;;;;;;;9.10;6.53;;;25.80;58.00;;;;;;5033365;28;20466;-68
2021/07/06 12:11:08;;;;;;;6.80;4.90;;;25.80;57.90;;;;;;5031361;28;20029;-67
2021/07/06 12:13:41;;;;;;;6.72;4.45;;;25.80;57.70;;;;;;5014968;28;20088;-68
2021/07/06 12:16:18;;;;;;;6.47;4.65;;;25.70;57.50;;;;;;5014270;28;20083;-67
2021/07/06 12:19:00;;;;;;;5.40;3.90;;;25.70;57.70;;;;;;5013541;28;20478;-67
2021/07/06 12:21:31;;;;;;;5.13;3.92;;;25.70;58.00;;;;;;5012636;28;20026;-67
2021/07/06 12:23:59;;;;;;;5.88;3.75;;;25.70;58.20;;;;;;5014040;28;20096;-67
2021/07/06 12:26:28;;;;;;;4.90;4.22;;;25.70;58.30;;;;;;5013691;28;20053;-67
2021/07/06 12:28:54;;;;;;;5.82;4.38;;;25.60;58.40;;;;;;5014571;28;20022;-68
2021/07/06 12:31:29;;;;;;;5.15;4.45;;;25.60;58.40;;;;;;5014136;28;20040;-68
2021/07/06 12:34:15;;;;;;;7.78;4.20;;;25.60;58.50;;;;;;5014619;28;20033;-67
2021/07/06 12:36:54;;;;;;;5.18;3.80;;;25.60;58.70;;;;;;5013946;28;20124;-67
2021/07/06 12:39:28;;;;;;;6.60;3.92;;;25.60;58.70;;;;;;5014389;28;20026;-68
2021/07/06 12:42:23;;;;;;;4.80;4.10;;;25.60;58.80;;;;;;5014340;28;20033;-68
2021/07/06 12:44:57;;;;;;;7.60;4.28;;;25.60;58.80;;;;;;5013212;28;20105;-69
2021/07/06 12:47:24;;;;;;;6.22;3.70;;;25.60;58.90;;;;;;5013748;28;20026;-67
2021/07/06 12:50:14;;;;;;;6.07;4.07;;;25.60;58.90;;;;;;5014120;28;20018;-68